createdAt,value
2023-02-19T00:02:04.137Z,77.93
2023-02-19T00:04:32.923Z,82.10
2023-02-19T00:07:01.410Z,79.40
2023-02-19T00:09:30.338Z,82.90
2023-02-19T00:11:58.813Z,72.43
2023-02-19T00:14:27.475Z,66.97
2023-02-19T00:16:57.347Z,82.07
2023-02-19T00:19:26.177Z,82.60
2023-02-19T00:21:55.294Z,83.43
2023-02-19T00:24:24.098Z,69.27
2023-02-19T00:26:52.624Z,77.53
2023-02-19T00:29:22.697Z,81.93
2023-02-19T00:31:52.265Z,75.83
2023-02-19T00:34:22.502Z,64.20
2023-02-19T00:36:50.975Z,80.90
2023-02-19T00:39:21.382Z,80.93
2023-02-19T00:41:49.928Z,66.80
2023-02-19T00:44:18.819Z,67.73
2023-02-19T00:46:50.229Z,74.90
2023-02-19T00:49:22.775Z,76.83
2023-02-19T00:51:52.823Z,83.03
2023-02-19T00:54:22.880Z,80.63
2023-02-19T00:56:52.073Z,74.07
2023-02-19T00:59:21.173Z,60.60
2023-02-19T01:01:49.790Z,62.50
2023-02-19T01:04:19.258Z,63.67
2023-02-19T01:06:49.238Z,63.43
2023-02-19T01:09:18.084Z,72.13
2023-02-19T01:11:46.534Z,62.67
2023-02-19T01:14:15.303Z,61.93
2023-02-19T01:16:43.779Z,62.60
2023-02-19T01:19:15.183Z,62.20
2023-02-19T01:21:43.984Z,58.37
2023-02-19T01:24:14.177Z,61.10
2023-02-19T01:26:42.687Z,61.67
2023-02-19T01:29:11.581Z,61.07
2023-02-19T01:31:42.144Z,60.50
2023-02-19T01:34:13.019Z,60.97
2023-02-19T01:36:41.617Z,59.90
2023-02-19T01:39:12.030Z,60.70
2023-02-19T01:41:43.150Z,61.53
2023-02-19T01:44:45.226Z,60.07
2023-02-19T01:47:14.731Z,72.20
2023-02-19T01:49:48.913Z,72.17
2023-02-19T01:52:23.496Z,60.10
2023-02-19T01:54:54.246Z,61.17
2023-02-19T01:57:27.768Z,61.27
2023-02-19T02:00:03.158Z,62.73
2023-02-19T02:02:42.407Z,66.60
2023-02-19T02:05:17.369Z,79.23
2023-02-19T02:08:03.302Z,72.50
2023-02-19T02:10:32.290Z,67.90
2023-02-19T02:13:02.115Z,62.93
2023-02-19T02:15:37.665Z,71.93
2023-02-19T02:18:16.323Z,70.47
2023-02-19T02:21:05.181Z,65.23
2023-02-19T02:23:44.238Z,59.07
2023-02-19T02:26:31.744Z,64.33
2023-02-19T02:29:32.860Z,63.13
2023-02-19T02:32:07.608Z,61.60
2023-02-19T02:34:42.599Z,62.87
2023-02-19T02:37:13.417Z,60.13
2023-02-19T02:39:43.237Z,62.67
2023-02-19T02:42:29.914Z,67.43
2023-02-19T02:45:35.955Z,64.60
2023-02-19T02:48:29.917Z,69.33
2023-02-19T02:51:02.679Z,72.80
2023-02-19T02:53:57.467Z,73.20
2023-02-19T02:56:27.298Z,63.47
2023-02-19T02:58:59.747Z,63.00
2023-02-19T03:01:50.719Z,64.17
2023-02-19T03:04:28.503Z,64.23
2023-02-19T03:06:58.187Z,63.90
2023-02-19T03:09:31.790Z,64.00
2023-02-19T03:12:21.473Z,62.70
2023-02-19T03:15:12.135Z,62.73
2023-02-19T03:18:03.134Z,61.27
2023-02-19T03:20:37.675Z,61.90
2023-02-19T03:23:08.962Z,62.13
2023-02-19T03:25:58.108Z,63.50
2023-02-19T03:28:59.583Z,64.03
2023-02-19T03:31:32.824Z,64.27
2023-02-19T03:34:07.028Z,61.33
2023-02-19T03:36:40.968Z,60.67
2023-02-19T03:39:11.623Z,62.67
2023-02-19T03:41:50.772Z,63.83
2023-02-19T03:44:26.884Z,62.07
2023-02-19T03:47:03.462Z,62.43
2023-02-19T03:49:38.138Z,62.70
2023-02-19T03:52:16.726Z,63.23
2023-02-19T03:54:52.088Z,61.77
2023-02-19T03:57:24.649Z,62.20
2023-02-19T03:59:58.280Z,61.80
2023-02-19T04:02:31.491Z,69.00
2023-02-19T04:05:08.442Z,74.63
2023-02-19T04:07:42.981Z,64.53
2023-02-19T04:10:12.186Z,69.67
2023-02-19T04:12:49.582Z,69.00
2023-02-19T04:15:22.856Z,69.20
2023-02-19T04:17:56.416Z,66.17
2023-02-19T04:20:28.170Z,77.37
2023-02-19T04:22:59.042Z,75.53
2023-02-19T04:25:30.388Z,78.10
2023-02-19T04:28:00.017Z,79.90
2023-02-19T04:30:28.641Z,81.07
2023-02-19T04:32:57.460Z,76.00
2023-02-19T04:35:25.899Z,78.10
2023-02-19T04:37:54.646Z,79.40
2023-02-19T04:40:24.494Z,82.80
2023-02-19T04:42:53.241Z,78.73
2023-02-19T04:45:21.730Z,72.70
2023-02-19T04:47:50.482Z,78.87
2023-02-19T04:50:19.047Z,74.23
2023-02-19T04:52:47.831Z,78.40
2023-02-19T04:55:16.415Z,80.10
2023-02-19T04:57:46.529Z,97.33
2023-02-19T05:00:15.503Z,82.30
2023-02-19T05:02:44.234Z,80.63
2023-02-19T05:05:12.807Z,80.43
2023-02-19T05:07:41.499Z,83.53
2023-02-19T05:10:10.063Z,80.73
2023-02-19T05:12:38.950Z,77.43
2023-02-19T05:15:09.178Z,80.07
2023-02-19T05:17:37.952Z,79.30
2023-02-19T05:20:07.055Z,77.07
2023-02-19T05:22:35.828Z,78.13
2023-02-19T05:25:04.441Z,78.57
2023-02-19T05:27:33.392Z,74.83
2023-02-19T05:30:01.894Z,81.33
2023-02-19T05:32:32.098Z,76.90
2023-02-19T05:35:00.625Z,77.47
2023-02-19T05:37:29.365Z,78.80
2023-02-19T05:39:57.896Z,77.27
2023-02-19T05:42:26.687Z,77.43
2023-02-19T05:44:55.234Z,77.73
2023-02-19T05:47:23.937Z,80.57
2023-02-19T05:49:53.923Z,76.33
2023-02-19T05:52:22.738Z,78.20
2023-02-19T05:54:51.182Z,77.43
2023-02-19T05:57:20.427Z,79.83
2023-02-19T05:59:48.828Z,80.83
2023-02-19T06:02:17.591Z,76.90
2023-02-19T06:04:46.307Z,74.53
2023-02-19T06:07:16.676Z,75.50
2023-02-19T06:09:45.138Z,78.00
2023-02-19T06:12:13.835Z,76.13
2023-02-19T06:14:42.298Z,75.03
2023-02-19T06:17:11.061Z,73.93
2023-02-19T06:19:39.470Z,79.70
2023-02-19T06:22:08.318Z,74.13
2023-02-19T06:24:38.239Z,78.50
2023-02-19T06:27:07.571Z,77.33
2023-02-19T06:29:38.170Z,82.83
2023-02-19T06:32:08.365Z,78.03
2023-02-19T06:34:37.246Z,77.33
2023-02-19T06:37:06.065Z,80.97
2023-02-19T06:39:34.519Z,75.37
2023-02-19T06:42:04.748Z,78.27
2023-02-19T06:44:33.245Z,78.50
2023-02-19T06:47:02.420Z,84.00
2023-02-19T06:49:30.962Z,83.73
2023-02-19T06:52:01.931Z,81.73
2023-02-19T06:54:30.637Z,98.43
2023-02-19T06:56:59.689Z,86.53
2023-02-19T06:59:29.639Z,103.83
2023-02-19T07:01:58.399Z,100.20
2023-02-19T07:04:26.833Z,102.57
2023-02-19T07:06:56.015Z,94.57
2023-02-19T07:09:25.429Z,95.37
2023-02-19T07:11:54.726Z,72.90
2023-02-19T07:14:23.213Z,69.40
2023-02-19T07:16:53.538Z,78.97
2023-02-19T07:19:22.184Z,76.07
2023-02-19T07:21:50.886Z,82.77
2023-02-19T07:24:21.513Z,82.40
2023-02-19T07:26:50.242Z,83.73
2023-02-19T07:29:18.947Z,81.63
2023-02-19T07:31:47.716Z,89.50
2023-02-19T07:34:17.675Z,84.13
2023-02-19T07:36:46.540Z,83.47
2023-02-19T07:39:15.686Z,86.10
2023-02-19T07:41:44.414Z,84.20
2023-02-19T07:44:24.568Z,83.97
2023-02-19T07:46:53.398Z,80.03
2023-02-19T07:49:23.265Z,81.27
2023-02-19T07:51:52.162Z,82.80
2023-02-19T07:54:20.658Z,80.10
2023-02-19T07:56:49.533Z,82.33
2023-02-19T07:59:19.415Z,82.87
2023-02-19T08:02:05.679Z,86.77
2023-02-19T08:04:35.750Z,82.30
2023-02-19T08:07:05.390Z,82.10
2023-02-19T08:09:34.525Z,82.70
2023-02-19T08:12:20.559Z,81.07
2023-02-19T08:14:49.187Z,83.73
2023-02-19T08:17:17.974Z,88.60
2023-02-19T08:19:47.863Z,86.47
2023-02-19T08:22:16.995Z,89.80
2023-02-19T08:24:45.444Z,87.63
2023-02-19T08:27:14.337Z,83.77
2023-02-19T08:29:42.882Z,87.70
2023-02-19T08:32:11.743Z,88.77
2023-02-19T08:34:40.326Z,84.47
2023-02-19T08:37:10.412Z,87.27
2023-02-19T08:39:40.094Z,87.47
2023-02-19T08:42:08.879Z,88.20
2023-02-19T08:44:37.326Z,87.77
2023-02-19T08:47:06.099Z,83.37
2023-02-19T08:49:34.543Z,82.67
2023-02-19T08:52:03.268Z,86.40
2023-02-19T08:54:35.387Z,79.97
2023-02-19T08:57:05.538Z,87.37
2023-02-19T08:59:34.204Z,80.87
2023-02-19T09:02:02.963Z,85.17
2023-02-19T09:04:31.694Z,79.20
2023-02-19T09:07:00.430Z,87.40
2023-02-19T09:09:28.844Z,88.90
2023-02-19T09:11:58.910Z,87.73
2023-02-19T09:14:27.430Z,81.10
2023-02-19T09:16:56.195Z,78.87
2023-02-19T09:19:24.914Z,77.77
2023-02-19T09:21:53.719Z,80.10
2023-02-19T09:24:22.691Z,85.33
2023-02-19T09:26:51.894Z,84.57
2023-02-19T09:29:22.932Z,79.10
2023-02-19T09:31:52.016Z,64.27
2023-02-19T09:34:20.476Z,62.00
2023-02-19T09:36:50.542Z,64.70
2023-02-19T09:39:19.436Z,62.47
2023-02-19T09:41:50.706Z,64.23
2023-02-19T09:44:25.952Z,62.07
2023-02-19T09:46:55.766Z,62.37
2023-02-19T09:49:29.226Z,62.80
2023-02-19T09:52:01.054Z,70.63
2023-02-19T09:54:31.947Z,76.13
2023-02-19T09:57:03.359Z,70.90
2023-02-19T09:59:41.050Z,67.43
2023-02-19T10:02:16.890Z,66.40
2023-02-19T10:04:51.022Z,69.47
2023-02-19T10:07:23.720Z,68.20
2023-02-19T10:09:56.611Z,66.47
2023-02-19T10:12:27.509Z,67.03
2023-02-19T10:15:05.774Z,71.63
2023-02-19T10:17:35.630Z,70.50
2023-02-19T10:20:04.972Z,85.03
2023-02-19T10:22:37.878Z,69.43
2023-02-19T10:25:06.948Z,72.37
2023-02-19T10:27:35.779Z,73.90
2023-02-19T10:30:15.601Z,75.40
2023-02-19T10:33:00.379Z,73.63
2023-02-19T10:35:32.107Z,80.27
2023-02-19T10:38:19.041Z,72.80
2023-02-19T10:41:06.559Z,71.10
2023-02-19T10:43:42.328Z,74.30
2023-02-19T10:46:18.970Z,74.80
2023-02-19T10:48:53.875Z,75.47
2023-02-19T10:51:30.822Z,80.80
2023-02-19T10:54:07.155Z,76.53
2023-02-19T10:56:38.517Z,74.70
2023-02-19T10:59:22.333Z,75.17
2023-02-19T11:02:06.424Z,74.07
2023-02-19T11:04:38.059Z,69.87
2023-02-19T11:07:11.343Z,70.53
2023-02-19T11:09:43.122Z,65.67
2023-02-19T11:12:13.670Z,73.73
2023-02-19T11:14:45.106Z,69.20
2023-02-19T11:17:24.625Z,70.23
2023-02-19T11:19:56.470Z,70.60
2023-02-19T11:22:32.578Z,68.67
2023-02-19T11:25:06.026Z,67.93
2023-02-19T11:27:34.732Z,73.17
2023-02-19T11:30:35.810Z,72.70
2023-02-19T11:33:23.379Z,73.83
2023-02-19T11:35:54.871Z,71.33
2023-02-19T11:38:23.532Z,69.03
2023-02-19T11:41:01.091Z,71.70
2023-02-19T11:43:49.303Z,75.90
2023-02-19T11:46:26.550Z,76.43
2023-02-19T11:49:04.715Z,71.70
2023-02-19T11:51:52.285Z,81.17
2023-02-19T11:54:35.067Z,63.00
2023-02-19T11:57:12.598Z,63.63
2023-02-19T11:59:47.095Z,61.73
2023-02-19T12:02:32.309Z,63.83
2023-02-19T12:05:22.965Z,58.97
2023-02-19T12:08:16.788Z,63.73
2023-02-19T12:10:57.607Z,63.40
2023-02-19T12:13:39.263Z,61.90
2023-02-19T12:16:19.762Z,63.73
2023-02-19T12:19:16.249Z,63.20
2023-02-19T12:21:56.365Z,61.27
2023-02-19T12:25:11.508Z,59.53
2023-02-19T12:27:50.298Z,62.77
2023-02-19T12:30:35.544Z,56.40
2023-02-19T12:33:18.388Z,60.93
2023-02-19T12:35:57.360Z,58.83
2023-02-19T12:38:35.146Z,59.60
2023-02-19T12:41:20.857Z,61.43
2023-02-19T12:43:55.578Z,64.60
2023-02-19T12:46:30.374Z,62.67
2023-02-19T12:49:05.461Z,60.43
2023-02-19T12:51:41.761Z,63.13
2023-02-19T12:54:18.899Z,59.40
2023-02-19T12:56:53.038Z,61.33
2023-02-19T12:59:25.648Z,61.27
2023-02-19T13:01:59.318Z,63.80
2023-02-19T13:04:35.638Z,64.83
2023-02-19T13:07:08.355Z,64.30
2023-02-19T13:09:42.906Z,67.00
2023-02-19T13:12:16.345Z,66.00
2023-02-19T13:14:48.795Z,68.33
2023-02-19T13:17:25.110Z,65.37
2023-02-19T13:19:57.859Z,66.00
2023-02-19T13:22:51.525Z,65.40
2023-02-19T13:25:23.400Z,65.30
2023-02-19T13:28:16.590Z,68.80
2023-02-19T13:31:16.386Z,67.60
2023-02-19T13:33:57.273Z,65.60
2023-02-19T13:36:28.393Z,63.50
2023-02-19T13:38:58.735Z,63.93
2023-02-19T13:41:41.164Z,67.33
2023-02-19T13:44:19.650Z,64.93
2023-02-19T13:46:49.942Z,65.83
2023-02-19T13:49:43.086Z,65.00
2023-02-19T13:52:35.552Z,65.40
2023-02-19T13:55:42.606Z,67.33
2023-02-19T13:58:37.832Z,65.53
2023-02-19T14:01:08.438Z,65.07
2023-02-19T14:03:54.947Z,63.10
2023-02-19T14:06:23.898Z,67.00
2023-02-19T14:08:57.162Z,65.73
2023-02-19T14:12:03.325Z,66.33
2023-02-19T14:14:38.760Z,66.53
2023-02-19T14:17:28.880Z,65.07
2023-02-19T14:19:59.723Z,64.50
2023-02-19T14:22:48.793Z,64.07
2023-02-19T14:25:29.399Z,63.63
2023-02-19T14:28:03.478Z,65.93
2023-02-19T14:30:35.748Z,65.83
2023-02-19T14:33:11.387Z,65.60
2023-02-19T14:35:45.267Z,64.70
2023-02-19T14:38:19.296Z,64.27
2023-02-19T14:40:49.290Z,66.40
2023-02-19T14:43:20.708Z,69.70
2023-02-19T14:45:56.087Z,64.57
2023-02-19T14:48:30.316Z,68.23
2023-02-19T14:51:05.341Z,66.90
2023-02-19T14:53:39.928Z,66.57
2023-02-19T14:56:19.688Z,66.67
2023-02-19T14:59:06.399Z,69.40
2023-02-19T15:01:36.335Z,69.20
2023-02-19T15:04:05.576Z,69.97
2023-02-19T15:06:36.861Z,70.23
2023-02-19T15:09:07.755Z,73.47
2023-02-19T15:11:37.072Z,67.97
2023-02-19T15:14:08.226Z,70.23
2023-02-19T15:16:38.340Z,66.60
2023-02-19T15:19:09.650Z,70.03
2023-02-19T15:21:41.113Z,66.70
2023-02-19T15:24:10.254Z,68.30
2023-02-19T15:26:40.995Z,67.60
2023-02-19T15:29:12.505Z,68.13
2023-02-19T15:31:47.863Z,68.20
2023-02-19T15:34:18.560Z,66.60
2023-02-19T15:36:48.057Z,65.90
2023-02-19T15:39:23.729Z,64.23
2023-02-19T15:42:00.067Z,64.63
2023-02-19T15:44:39.928Z,68.57
2023-02-19T15:47:16.677Z,64.87
2023-02-19T15:49:51.626Z,65.87
2023-02-19T15:52:27.180Z,64.93
2023-02-19T15:55:01.101Z,64.13
2023-02-19T15:57:33.258Z,66.03
2023-02-19T16:00:07.171Z,80.30
2023-02-19T16:02:42.404Z,67.33
2023-02-19T16:05:17.875Z,67.70
2023-02-19T16:07:46.391Z,153.03
2023-02-19T16:10:22.514Z,88.40
2023-02-19T16:12:58.444Z,85.83
2023-02-19T16:15:28.583Z,65.63
2023-02-19T16:17:59.714Z,67.80
2023-02-19T16:20:31.452Z,63.67
2023-02-19T16:23:02.591Z,66.67
2023-02-19T16:25:40.335Z,65.27
2023-02-19T16:28:14.736Z,66.07
2023-02-19T16:30:44.010Z,64.57
2023-02-19T16:33:42.603Z,69.87
2023-02-19T16:36:36.444Z,67.53
2023-02-19T16:39:22.984Z,66.30
2023-02-19T16:42:14.731Z,65.90
2023-02-19T16:44:44.425Z,66.80
2023-02-19T16:47:24.264Z,68.43
2023-02-19T16:49:55.481Z,68.60
2023-02-19T16:52:24.252Z,138.60
2023-02-19T16:54:52.883Z,245.17
2023-02-19T16:57:21.832Z,65.13
2023-02-19T16:59:50.297Z,69.90
2023-02-19T17:02:23.383Z,67.97
2023-02-19T17:04:55.266Z,70.13
2023-02-19T17:07:24.482Z,71.70
2023-02-19T17:09:52.939Z,73.10
2023-02-19T17:12:25.102Z,76.17
2023-02-19T17:14:53.567Z,83.50
2023-02-19T17:17:22.386Z,75.40
2023-02-19T17:19:50.942Z,70.00
2023-02-19T17:22:21.043Z,74.73
2023-02-19T17:24:49.563Z,69.47
2023-02-19T17:27:18.256Z,72.27
2023-02-19T17:29:46.697Z,71.17
2023-02-19T17:32:15.655Z,71.10
2023-02-19T17:34:44.275Z,70.10
2023-02-19T17:37:13.513Z,68.73
2023-02-19T17:39:43.362Z,69.30
2023-02-19T17:42:12.097Z,70.20
2023-02-19T17:44:40.520Z,72.47
2023-02-19T17:47:09.330Z,70.43
2023-02-19T17:49:37.815Z,69.30
2023-02-19T17:52:06.802Z,67.37
2023-02-19T17:54:35.409Z,72.27
2023-02-19T17:57:05.701Z,73.83
2023-02-19T17:59:34.174Z,73.83
2023-02-19T18:02:03.228Z,72.13
2023-02-19T18:04:31.783Z,70.67
2023-02-19T18:07:00.981Z,82.20
2023-02-19T18:09:29.427Z,76.27
2023-02-19T18:11:58.265Z,74.77
2023-02-19T18:14:28.141Z,82.13
2023-02-19T18:16:56.945Z,70.33
2023-02-19T18:19:26.015Z,70.13
2023-02-19T18:21:54.768Z,68.87
2023-02-19T18:24:23.210Z,71.03
2023-02-19T18:26:51.974Z,71.73
2023-02-19T18:29:21.934Z,82.27
2023-02-19T18:31:52.564Z,77.23
2023-02-19T18:34:21.255Z,73.60
2023-02-19T18:36:50.860Z,76.93
2023-02-19T18:39:19.799Z,78.17
2023-02-19T18:41:50.997Z,85.20
2023-02-19T18:44:23.027Z,88.80
2023-02-19T18:46:53.703Z,86.80
2023-02-19T18:49:22.423Z,94.00
2023-02-19T18:51:51.950Z,89.60
2023-02-19T18:54:24.267Z,99.93
2023-02-19T18:56:53.376Z,106.67
2023-02-19T18:59:22.565Z,88.33
2023-02-19T19:01:54.036Z,91.73
2023-02-19T19:04:22.902Z,72.50
2023-02-19T19:06:53.357Z,74.20
2023-02-19T19:09:22.614Z,77.13
2023-02-19T19:11:51.957Z,79.83
2023-02-19T19:14:20.993Z,75.97
2023-02-19T19:16:49.856Z,72.20
2023-02-19T19:19:20.361Z,93.90
2023-02-19T19:21:53.480Z,92.33
2023-02-19T19:24:23.933Z,91.80
2023-02-19T19:26:54.884Z,96.20
2023-02-19T19:29:24.927Z,99.37
2023-02-19T19:31:55.034Z,91.20
2023-02-19T19:34:25.944Z,95.30
2023-02-19T19:36:55.195Z,92.63
2023-02-19T19:39:24.043Z,89.10
2023-02-19T19:41:56.477Z,84.97
2023-02-19T19:44:25.820Z,87.00
2023-02-19T19:46:56.888Z,92.97
2023-02-19T19:49:28.930Z,90.13
2023-02-19T19:52:01.413Z,87.87
2023-02-19T19:54:30.599Z,84.50
2023-02-19T19:57:00.031Z,98.00
2023-02-19T19:59:29.788Z,89.27
2023-02-19T20:01:59.547Z,92.43
2023-02-19T20:04:30.069Z,90.63
2023-02-19T20:07:00.603Z,97.93
2023-02-19T20:09:29.379Z,103.97
2023-02-19T20:11:59.812Z,104.43
2023-02-19T20:14:29.262Z,96.23
2023-02-19T20:16:59.136Z,88.73
2023-02-19T20:19:29.896Z,83.00
2023-02-19T20:22:01.317Z,97.93
2023-02-19T20:24:32.626Z,94.57
2023-02-19T20:27:04.135Z,92.40
2023-02-19T20:29:36.005Z,96.03
2023-02-19T20:32:06.731Z,104.50
2023-02-19T20:34:38.182Z,94.63
2023-02-19T20:37:08.476Z,92.53
2023-02-19T20:39:37.998Z,91.87
2023-02-19T20:42:07.632Z,82.93
2023-02-19T20:44:36.565Z,74.90
2023-02-19T20:47:06.548Z,74.23
2023-02-19T20:49:37.633Z,77.93
2023-02-19T20:52:08.939Z,76.07
2023-02-19T20:54:38.400Z,73.97
2023-02-19T20:57:08.031Z,75.93
2023-02-19T20:59:38.914Z,72.80
2023-02-19T21:02:11.424Z,72.27
2023-02-19T21:04:41.899Z,72.20
2023-02-19T21:07:10.840Z,71.30
2023-02-19T21:09:39.547Z,74.33
2023-02-19T21:12:08.941Z,71.33
2023-02-19T21:14:37.568Z,72.17
2023-02-19T21:17:06.696Z,72.67
2023-02-19T21:19:35.288Z,70.93
2023-02-19T21:22:05.629Z,70.53
2023-02-19T21:24:34.182Z,71.57
2023-02-19T21:27:03.098Z,72.17
2023-02-19T21:29:31.635Z,68.27
2023-02-19T21:32:01.176Z,75.30
2023-02-19T21:34:31.032Z,72.00
2023-02-19T21:36:59.884Z,72.00
2023-02-19T21:39:31.289Z,74.40
2023-02-19T21:42:00.386Z,70.67
2023-02-19T21:44:28.844Z,67.63
2023-02-19T21:46:57.584Z,62.93
2023-02-19T21:49:26.178Z,62.23
2023-02-19T21:51:54.951Z,62.73
2023-02-19T21:54:25.628Z,63.43
2023-02-19T21:56:56.233Z,64.70
2023-02-19T21:59:24.745Z,63.53
2023-02-19T22:01:53.446Z,66.00
2023-02-19T22:04:24.461Z,68.03
2023-02-19T22:06:56.470Z,66.77
2023-02-19T22:09:24.962Z,65.60
2023-02-19T22:11:55.286Z,67.10
2023-02-19T22:14:23.674Z,67.10
2023-02-19T22:16:52.417Z,69.33
2023-02-19T22:19:20.917Z,67.03
2023-02-19T22:21:49.714Z,69.10
2023-02-19T22:24:20.161Z,72.57
2023-02-19T22:26:50.641Z,67.20
2023-02-19T22:29:20.507Z,66.90
2023-02-19T22:31:49.312Z,65.63
2023-02-19T22:34:18.369Z,66.03
2023-02-19T22:36:47.019Z,64.00
2023-02-19T22:39:18.903Z,65.37
2023-02-19T22:41:48.131Z,69.33
2023-02-19T22:44:16.792Z,67.13
2023-02-19T22:46:52.185Z,69.80
2023-02-19T22:49:21.947Z,69.23
2023-02-19T22:51:56.309Z,67.97
2023-02-19T22:54:26.911Z,72.03
2023-02-19T22:56:56.121Z,69.63
2023-02-19T22:59:24.939Z,67.20
2023-02-19T23:01:55.690Z,68.27
2023-02-19T23:04:25.614Z,66.83
2023-02-19T23:06:54.406Z,67.80
2023-02-19T23:09:24.902Z,69.77
2023-02-19T23:11:54.546Z,65.50
2023-02-19T23:14:24.327Z,69.17
2023-02-19T23:16:54.585Z,69.40
2023-02-19T23:19:24.368Z,69.37
2023-02-19T23:21:53.797Z,66.63
2023-02-19T23:24:22.237Z,71.43
2023-02-19T23:26:52.424Z,69.07
2023-02-19T23:29:24.383Z,68.13
2023-02-19T23:31:55.901Z,66.20
2023-02-19T23:34:25.012Z,67.47
2023-02-19T23:36:55.376Z,67.60
2023-02-19T23:39:24.052Z,65.97
2023-02-19T23:41:55.349Z,67.20
2023-02-19T23:44:25.576Z,68.20
2023-02-19T23:46:55.677Z,68.57
2023-02-19T23:49:24.678Z,66.93
2023-02-19T23:51:53.405Z,66.43
2023-02-19T23:54:21.828Z,67.17
2023-02-19T23:56:50.547Z,65.77
2023-02-19T23:59:19.086Z,67.17
